KBDH

Willmar Municipal-John L Rice Field Airport

Willmar, Minnesota, USA
METAR KBDH 181955Z AUTO 24011KT 10SM CLR 06/M02 A2965 RMK AO2
Observed Flight Rules
Dec-18 @ 19:55 UTC (35 minutes ago) Visual Flight Rules
Wind Visibility Clouds
240° at 11 knots 10 miles
  • Clear skies
Temperatures Readings
Current 6°C / 43°F
Dewpoint -2°C / 28°F
Humidity 57%
Altimeter 29.65" Hg
Pressure 1004 hPa
Elevation 247
METAR KBDH 181955Z AUTO 24011KT 10SM CLR 06/M02 A2965 RMK AO2
Observed Flight Rules
Dec-18 @ 19:55 UTC
(35 minutes ago)
VFR
Wind Visibility
240° at 11 knots 10 miles
Clouds
  • Clear skies
Temperature Dewpoint
6°C / 43°F -2°C / 28°F
Humidity Altimeter Pressure
57% 29.65" Hg 1004 hPa